Huvudsida
METAR-TAF:

METAR-TAF

Flygplatser :

Taranto, Italien

latitud: 40-31N, longitud: 017-24E, höjd: 64 m

Aktuellt väderrapport

Denna rapport gjordes för 10 timmar och 27 minuter sedan, klockan 17:50 UTC
Vind 6 kt från syd
Temperatur 25°C
Fuktighet 69%
Tryck 1011 hPa
Sikt 10 km eller mer
Inga moln under 1 500 m eller inga cumulonimbus

METAR: LIBG 181750Z 19006KT CAVOK 25/19 Q1011

Tid: 06:17 (04:17 UTC)

Väderprognos

Denna rapport gjordes för 14 timmar och 17 minuter sedan, klockan 14:00 UTC
Prognos gäller från 18 kl. 15 UTC till 18 kl. 24 UTC
Vind 10 kt från syd/sydväst
Sikt 10 km eller mer
Inga moln under 1 500 m eller inga cumulonimbus
Blir
från 18 kl. 16 UTC till 18 kl. 18 UTC
Vind 4 kt varierande vindriktning

TAF: LIBG 181400Z 1815/1824 20010KT CAVOK BECMG 1816/1818 VRB04KT

Aktuella väderrapporter och prognoser från 4000 flygplatser (METAR- och TAF-rapporter).

De tillgängliga stationerna syns som gula och röda prickar på kartan.

För musen över prickarna för att se namnen på stationerna.

Klicka sedan för att få väderrapporter och prognoser.

För att ändra kartan: Klicka på de gröna knapparna med ett svart kors på för att zooma in; den gröna knappen med ett streck på för att zooma ut; eller på de gröna pilarna för angränsande kartor.


METAR-TAF: